createdAt,value
2019-02-11T00:01:33.612Z,4.35
2019-02-11T00:04:03.597Z,4.30
2019-02-11T00:06:33.499Z,4.27
2019-02-11T00:09:04.905Z,4.21
2019-02-11T00:11:35.862Z,4.23
2019-02-11T00:14:05.887Z,4.20
2019-02-11T00:16:35.785Z,4.30
2019-02-11T00:19:05.660Z,4.22
2019-02-11T00:21:35.637Z,4.19
2019-02-11T00:24:05.587Z,4.16
2019-02-11T00:26:35.481Z,4.18
2019-02-11T00:29:05.512Z,4.08
2019-02-11T00:31:35.454Z,4.11
2019-02-11T00:34:05.451Z,4.08
2019-02-11T00:36:35.397Z,4.04
2019-02-11T00:39:07.026Z,4.02
2019-02-11T00:41:36.936Z,4.11
2019-02-11T00:44:06.887Z,4.10
2019-02-11T00:46:36.833Z,4.12
2019-02-11T00:49:06.688Z,4.06
2019-02-11T00:51:36.574Z,4.05
2019-02-11T00:54:06.472Z,3.99
2019-02-11T00:56:36.332Z,4.01
2019-02-11T00:59:06.246Z,3.93
2019-02-11T01:01:36.184Z,3.88
2019-02-11T01:04:06.160Z,3.88
2019-02-11T01:06:36.074Z,3.87
2019-02-11T01:09:06.881Z,3.88
2019-02-11T01:11:37.747Z,3.93
2019-02-11T01:14:07.629Z,3.96
2019-02-11T01:16:37.698Z,3.98
2019-02-11T01:19:07.642Z,3.93
2019-02-11T01:21:37.559Z,3.89
2019-02-11T01:24:07.538Z,3.88
2019-02-11T01:26:37.371Z,3.90
2019-02-11T01:29:07.265Z,3.89
2019-02-11T01:31:37.170Z,3.88
2019-02-11T01:34:07.113Z,3.92
2019-02-11T01:36:37.107Z,3.90
2019-02-11T01:39:07.539Z,3.91
2019-02-11T01:41:37.533Z,3.89
2019-02-11T01:44:07.358Z,4.00
2019-02-11T01:46:37.269Z,3.93
2019-02-11T01:49:07.156Z,3.95
2019-02-11T01:51:37.057Z,3.96
2019-02-11T01:54:06.877Z,3.89
2019-02-11T01:56:38.233Z,3.82
2019-02-11T01:59:08.282Z,3.78
2019-02-11T02:01:38.320Z,3.82
2019-02-11T02:04:08.325Z,3.83
2019-02-11T02:06:38.227Z,3.90
2019-02-11T02:09:08.602Z,3.88
2019-02-11T02:11:38.464Z,3.91
2019-02-11T02:14:08.382Z,3.96
2019-02-11T02:16:38.390Z,3.96
2019-02-11T02:19:08.355Z,3.98
2019-02-11T02:21:38.275Z,3.97
2019-02-11T02:24:08.278Z,3.93
2019-02-11T02:26:38.189Z,3.82
2019-02-11T02:29:08.194Z,3.72
2019-02-11T02:31:39.167Z,3.64
2019-02-11T02:34:09.085Z,3.58
2019-02-11T02:36:39.026Z,3.63
2019-02-11T02:39:09.148Z,3.60
2019-02-11T02:41:39.088Z,3.56
2019-02-11T02:44:09.113Z,3.62
2019-02-11T02:46:38.964Z,3.62
2019-02-11T02:49:09.056Z,3.62
2019-02-11T02:51:38.904Z,3.59
2019-02-11T02:54:08.794Z,3.57
2019-02-11T02:56:38.791Z,3.52
2019-02-11T02:59:08.765Z,3.46
2019-02-11T03:01:38.671Z,3.42
2019-02-11T03:04:08.523Z,3.38
2019-02-11T03:22:49.679Z,2.81
2019-02-11T03:25:19.590Z,2.74
2019-02-11T03:27:49.523Z,2.74
2019-02-11T03:30:19.489Z,2.71
2019-02-11T03:32:49.431Z,2.74
2019-02-11T03:35:19.457Z,2.70
2019-02-11T03:37:49.375Z,2.62
2019-02-11T03:40:19.329Z,2.55
2019-02-11T03:42:49.187Z,2.54
2019-02-11T03:45:19.125Z,2.57
2019-02-11T03:47:49.051Z,2.62
2019-02-11T03:50:19.040Z,2.59
2019-02-11T03:52:48.992Z,2.54
2019-02-11T03:55:18.875Z,2.57
2019-02-11T03:57:48.910Z,2.60
2019-02-11T04:00:19.012Z,2.56
2019-02-11T04:02:48.973Z,2.57
2019-02-11T04:05:18.801Z,2.52
2019-02-11T04:07:48.696Z,2.56
2019-02-11T04:10:18.724Z,2.55
2019-02-11T04:12:48.740Z,2.58
2019-02-11T04:15:18.618Z,2.56
2019-02-11T04:17:48.547Z,2.60
2019-02-11T04:20:18.585Z,2.64
2019-02-11T04:22:48.414Z,2.69
2019-02-11T04:25:18.347Z,2.66
2019-02-11T04:27:48.172Z,2.72
2019-02-11T04:30:18.036Z,2.66
2019-02-11T04:32:48.822Z,2.64
2019-02-11T04:35:18.722Z,2.65
2019-02-11T04:37:48.611Z,2.68
2019-02-11T04:40:18.553Z,2.63
2019-02-11T04:42:48.553Z,2.72
2019-02-11T04:45:18.784Z,2.68
2019-02-11T04:47:48.595Z,2.66
2019-02-11T04:50:19.618Z,2.65
2019-02-11T04:52:49.591Z,2.76
2019-02-11T04:55:19.491Z,2.70
2019-02-11T04:57:49.358Z,2.68
2019-02-11T05:00:19.378Z,2.66
2019-02-11T05:02:49.255Z,2.70
2019-02-11T05:05:19.069Z,2.73
2019-02-11T05:07:48.930Z,2.77
2019-02-11T05:10:18.741Z,2.71
2019-02-11T05:12:48.710Z,2.72
2019-02-11T05:15:18.600Z,2.72
2019-02-11T05:17:48.533Z,2.70
2019-02-11T05:20:18.548Z,2.74
2019-02-11T05:22:48.412Z,2.69
2019-02-11T05:25:18.362Z,2.67
2019-02-11T05:27:48.266Z,2.64
2019-02-11T05:30:18.321Z,2.65
2019-02-11T05:32:48.217Z,2.66
2019-02-11T05:35:18.220Z,2.55
2019-02-11T05:37:48.132Z,2.53
2019-02-11T05:40:18.112Z,2.50
2019-02-11T05:42:48.115Z,2.51
2019-02-11T05:45:18.061Z,2.48
2019-02-11T05:47:47.997Z,2.54
2019-02-11T05:50:17.922Z,2.35
2019-02-11T05:52:47.824Z,2.38
2019-02-11T05:55:17.725Z,2.30
2019-02-11T05:57:47.608Z,2.15
2019-02-11T06:00:18.649Z,2.06
2019-02-11T06:02:48.498Z,1.96
2019-02-11T06:05:18.463Z,1.94
2019-02-11T06:07:48.469Z,1.82
2019-02-11T06:10:18.566Z,1.72
2019-02-11T06:12:48.608Z,1.73
2019-02-11T06:15:18.457Z,1.60
2019-02-11T06:17:48.398Z,1.55
2019-02-11T06:20:18.321Z,1.52
2019-02-11T06:22:48.285Z,1.39
2019-02-11T06:25:18.117Z,1.40
2019-02-11T06:27:48.108Z,1.45
2019-02-11T06:30:18.014Z,1.40
2019-02-11T06:32:47.947Z,1.31
2019-02-11T06:35:17.805Z,1.29
2019-02-11T06:37:47.717Z,1.29
2019-02-11T06:40:18.604Z,1.20
2019-02-11T06:42:48.556Z,1.14
2019-02-11T06:45:18.472Z,1.17
2019-02-11T06:47:48.297Z,1.21
2019-02-11T06:50:18.238Z,1.23
2019-02-11T06:52:48.158Z,1.24
2019-02-11T06:55:18.045Z,1.13
2019-02-11T06:57:47.936Z,0.93
2019-02-11T07:00:19.897Z,0.98
2019-02-11T07:02:49.869Z,1.05
2019-02-11T07:05:19.827Z,1.06
2019-02-11T07:07:49.699Z,1.12
2019-02-11T07:10:19.642Z,1.23
2019-02-11T07:12:49.465Z,1.17
2019-02-11T07:15:22.254Z,1.08
2019-02-11T07:17:50.974Z,1.04
2019-02-11T07:20:20.901Z,1.06
2019-02-11T07:22:50.711Z,1.00
2019-02-11T07:25:20.789Z,0.99
2019-02-11T07:27:50.669Z,0.98
2019-02-11T07:30:20.724Z,1.00
2019-02-11T07:32:50.630Z,0.95
2019-02-11T07:35:20.557Z,0.92
2019-02-11T07:37:50.515Z,0.91
2019-02-11T07:40:20.947Z,0.88
2019-02-11T07:43:09.782Z,0.89
2019-02-11T07:45:47.896Z,0.97
2019-02-11T07:48:19.112Z,1.12
2019-02-11T07:50:49.103Z,1.14
2019-02-11T07:53:19.917Z,1.08
2019-02-11T07:55:49.869Z,1.08
2019-02-11T07:58:21.272Z,1.08
2019-02-11T08:00:51.169Z,1.08
2019-02-11T08:03:21.155Z,1.10
2019-02-11T08:05:51.206Z,1.21
2019-02-11T08:08:21.130Z,1.24
2019-02-11T08:10:51.084Z,1.18
2019-02-11T08:13:21.038Z,1.24
2019-02-11T08:15:50.882Z,1.19
2019-02-11T08:18:20.865Z,1.21
2019-02-11T08:20:51.782Z,1.24
2019-02-11T08:23:21.741Z,1.35
2019-02-11T08:25:51.552Z,1.21
2019-02-11T08:28:21.499Z,1.17
2019-02-11T08:30:51.394Z,1.26
2019-02-11T08:33:21.419Z,1.24
2019-02-11T08:35:51.238Z,1.25
2019-02-11T08:38:21.143Z,1.36
2019-02-11T08:40:51.045Z,1.44
2019-02-11T08:43:20.949Z,1.44
2019-02-11T08:45:50.834Z,1.49
2019-02-11T08:48:20.786Z,1.39
2019-02-11T08:50:50.674Z,1.42
2019-02-11T08:53:21.521Z,1.47
2019-02-11T08:55:51.435Z,1.40
2019-02-11T08:58:22.480Z,1.37
2019-02-11T09:00:52.411Z,1.28
2019-02-11T09:03:22.365Z,1.42
2019-02-11T09:05:52.364Z,1.41
2019-02-11T09:08:22.308Z,1.25
2019-02-11T09:10:52.240Z,1.11
2019-02-11T09:13:22.072Z,1.14
2019-02-11T09:15:55.337Z,0.96
2019-02-11T09:18:23.699Z,1.01
2019-02-11T09:20:53.734Z,0.95
2019-02-11T09:23:23.596Z,1.04
2019-02-11T09:25:53.634Z,1.21
2019-02-11T09:28:23.647Z,1.25
2019-02-11T09:30:53.706Z,1.35
2019-02-11T09:33:23.606Z,1.15
2019-02-11T09:35:53.546Z,1.16
2019-02-11T09:38:23.570Z,1.20
2019-02-11T09:40:53.590Z,1.15
2019-02-11T09:43:23.627Z,1.26
2019-02-11T09:45:53.667Z,1.19
2019-02-11T09:48:23.658Z,1.45
2019-02-11T09:50:54.066Z,1.24
2019-02-11T09:53:23.962Z,1.40
2019-02-11T09:55:53.906Z,1.41
2019-02-11T09:58:23.839Z,1.56
2019-02-11T10:00:53.830Z,1.43
2019-02-11T10:03:23.724Z,1.46
2019-02-11T10:05:53.688Z,1.36
2019-02-11T10:08:23.703Z,1.47
2019-02-11T10:10:54.581Z,1.34
2019-02-11T10:13:24.604Z,1.40
2019-02-11T10:15:54.442Z,1.30
2019-02-11T10:18:24.396Z,1.39
2019-02-11T10:20:55.588Z,1.38
2019-02-11T10:23:25.464Z,1.45
2019-02-11T10:25:55.362Z,1.52
2019-02-11T10:28:25.344Z,1.53
2019-02-11T10:30:55.252Z,1.44
2019-02-11T10:33:25.193Z,1.42
2019-02-11T10:35:55.158Z,1.49
2019-02-11T10:38:25.140Z,1.41
2019-02-11T10:40:55.038Z,1.51
2019-02-11T10:43:25.062Z,1.50
2019-02-11T10:45:55.041Z,1.71
2019-02-11T10:48:25.479Z,1.46
2019-02-11T10:50:55.645Z,1.29
2019-02-11T10:53:25.597Z,1.26
2019-02-11T10:55:55.602Z,1.33
2019-02-11T10:58:25.899Z,1.34
2019-02-11T11:00:56.927Z,1.24
2019-02-11T11:03:29.146Z,1.15
2019-02-11T11:05:59.053Z,1.31
2019-02-11T11:08:29.089Z,1.30
2019-02-11T11:10:59.009Z,1.29
2019-02-11T11:13:28.959Z,1.32
2019-02-11T11:15:58.946Z,1.30
2019-02-11T11:18:28.914Z,1.46
2019-02-11T11:20:58.816Z,1.33
2019-02-11T11:23:30.943Z,1.39
2019-02-11T11:26:00.861Z,1.44
2019-02-11T11:28:30.809Z,1.51
2019-02-11T11:31:00.843Z,1.47
2019-02-11T11:33:30.958Z,1.59
2019-02-11T11:36:00.855Z,1.67
2019-02-11T11:38:30.756Z,1.70
2019-02-11T11:41:00.805Z,1.71
2019-02-11T11:43:30.958Z,1.67
2019-02-11T11:46:00.861Z,1.66
2019-02-11T11:48:30.801Z,1.61
2019-02-11T11:51:00.695Z,1.66
2019-02-11T11:53:30.580Z,1.56
2019-02-11T11:56:02.309Z,1.52
2019-02-11T11:58:32.242Z,1.55
2019-02-11T12:01:02.241Z,1.45
2019-02-11T12:03:32.114Z,1.51
2019-02-11T12:06:01.947Z,1.42
2019-02-11T12:08:32.077Z,1.52
2019-02-11T12:11:02.088Z,1.58
2019-02-11T12:13:32.159Z,1.43
2019-02-11T12:16:02.047Z,1.46
2019-02-11T12:18:32.003Z,1.35
2019-02-11T12:21:01.985Z,1.39
2019-02-11T12:23:31.941Z,1.35
2019-02-11T12:26:02.020Z,1.30
2019-02-11T12:28:31.928Z,1.35
2019-02-11T12:31:01.961Z,1.42
2019-02-11T12:33:31.796Z,1.32
2019-02-11T12:36:01.861Z,1.49
2019-02-11T12:38:31.764Z,1.50
2019-02-11T12:41:01.701Z,1.41
2019-02-11T12:43:32.045Z,1.40
2019-02-11T12:46:02.036Z,1.46
2019-02-11T12:48:31.908Z,1.64
2019-02-11T12:51:01.886Z,1.38
2019-02-11T12:53:31.786Z,1.39
2019-02-11T12:56:02.846Z,1.45
2019-02-11T12:58:33.084Z,1.38
2019-02-11T13:01:03.422Z,1.39
2019-02-11T13:03:33.332Z,1.35
2019-02-11T13:06:03.379Z,1.22
2019-02-11T13:08:34.887Z,1.15
2019-02-11T13:11:05.213Z,1.11
2019-02-11T13:13:35.345Z,1.09
2019-02-11T13:16:06.439Z,1.07
2019-02-11T13:18:39.582Z,1.12
2019-02-11T13:21:08.139Z,1.01
2019-02-11T13:23:38.080Z,1.07
2019-02-11T13:26:08.018Z,1.05
2019-02-11T13:28:37.974Z,1.00
2019-02-11T13:31:07.949Z,1.09
2019-02-11T13:33:37.891Z,0.99
2019-02-11T13:36:07.999Z,1.03
2019-02-11T13:38:38.858Z,1.14
2019-02-11T13:41:08.749Z,1.08
2019-02-11T13:43:38.739Z,1.21
2019-02-11T13:46:08.667Z,1.28
2019-02-11T13:48:38.706Z,1.19
2019-02-11T13:51:08.685Z,1.36
2019-02-11T13:53:38.575Z,1.36
2019-02-11T13:56:08.927Z,1.31
2019-02-11T13:58:38.885Z,1.25
2019-02-11T14:01:11.298Z,1.45
2019-02-11T14:03:41.281Z,1.56
2019-02-11T14:06:11.283Z,1.35
2019-02-11T14:08:41.218Z,1.36
2019-02-11T14:11:12.423Z,1.50
2019-02-11T14:13:42.451Z,1.50
2019-02-11T14:16:12.471Z,1.64
2019-02-11T14:18:42.572Z,1.69
2019-02-11T14:21:12.540Z,1.82
2019-02-11T14:23:42.562Z,1.87
2019-02-11T14:26:12.567Z,1.84
2019-02-11T14:28:42.542Z,1.86
2019-02-11T14:31:13.082Z,1.92
2019-02-11T14:33:43.428Z,1.98
2019-02-11T14:36:13.838Z,1.89
2019-02-11T14:38:44.109Z,1.82
2019-02-11T14:41:14.239Z,1.98
2019-02-11T14:43:44.299Z,1.89
2019-02-11T14:46:14.437Z,1.97
2019-02-11T14:48:44.467Z,1.83
2019-02-11T14:51:14.485Z,1.84
2019-02-11T14:53:44.491Z,1.84
2019-02-11T14:56:14.903Z,1.78
2019-02-11T14:58:44.810Z,1.83
2019-02-11T15:01:14.750Z,1.86
2019-02-11T15:03:44.675Z,1.85
2019-02-11T15:06:14.630Z,1.93
2019-02-11T15:08:44.484Z,1.97
2019-02-11T15:11:14.448Z,1.83
2019-02-11T15:13:44.280Z,1.93
2019-02-11T15:16:15.325Z,1.82
2019-02-11T15:18:45.156Z,1.86
2019-02-11T15:21:15.199Z,1.78
2019-02-11T15:23:45.256Z,1.82
2019-02-11T15:26:15.163Z,1.85
2019-02-11T15:28:45.078Z,1.94
2019-02-11T15:31:14.911Z,1.92
2019-02-11T15:33:44.893Z,1.96
2019-02-11T15:36:14.799Z,1.94
2019-02-11T15:38:44.942Z,1.86
2019-02-11T15:41:14.920Z,1.82
2019-02-11T15:43:44.860Z,1.79
2019-02-11T15:46:14.757Z,1.76
2019-02-11T15:48:44.773Z,1.75
2019-02-11T15:51:14.599Z,1.66
2019-02-11T15:53:44.592Z,1.70
2019-02-11T15:56:14.573Z,1.74
2019-02-11T15:58:44.556Z,1.65
2019-02-11T16:01:14.434Z,1.69
2019-02-11T16:03:44.362Z,1.61
2019-02-11T16:06:14.218Z,1.65
2019-02-11T16:08:44.198Z,1.61
2019-02-11T16:11:14.146Z,1.62
2019-02-11T16:13:44.069Z,1.63
2019-02-11T16:16:14.008Z,1.62
2019-02-11T16:18:51.653Z,1.62
2019-02-11T16:21:15.548Z,1.64
2019-02-11T16:23:45.468Z,1.54
2019-02-11T16:26:15.523Z,1.55
2019-02-11T16:28:45.366Z,1.57
2019-02-11T16:31:15.228Z,1.58
2019-02-11T16:33:45.122Z,1.55
2019-02-11T16:36:15.144Z,1.55
2019-02-11T16:38:44.993Z,1.54
2019-02-11T16:41:14.969Z,1.57
2019-02-11T16:43:44.902Z,1.55
2019-02-11T16:46:18.680Z,1.54
2019-02-11T16:48:48.599Z,1.58
2019-02-11T16:51:18.542Z,1.52
2019-02-11T16:53:48.480Z,1.55
2019-02-11T16:56:18.404Z,1.51
2019-02-11T16:58:48.461Z,1.52
2019-02-11T17:01:18.789Z,1.57
2019-02-11T17:03:48.723Z,1.56
2019-02-11T17:06:18.537Z,1.58
2019-02-11T17:08:48.498Z,1.56
2019-02-11T17:11:18.469Z,1.55
2019-02-11T17:13:48.419Z,1.58
2019-02-11T17:16:18.679Z,1.65
2019-02-11T17:18:48.556Z,1.66
2019-02-11T17:21:18.400Z,1.67
2019-02-11T17:23:48.279Z,1.71
2019-02-11T17:26:18.267Z,1.75
2019-02-11T17:28:48.289Z,1.80
2019-02-11T17:31:18.814Z,1.80
2019-02-11T17:33:48.768Z,1.82
2019-02-11T17:36:18.749Z,1.75
2019-02-11T17:38:48.767Z,1.77
2019-02-11T17:41:18.709Z,1.72
2019-02-11T17:43:48.726Z,1.73
2019-02-11T17:46:18.710Z,1.73
2019-02-11T17:48:48.696Z,1.85
2019-02-11T17:51:18.795Z,1.73
2019-02-11T17:53:48.761Z,1.79
2019-02-11T17:56:18.675Z,1.76
2019-02-11T17:58:48.698Z,1.77
2019-02-11T18:01:18.674Z,1.75
2019-02-11T18:03:49.749Z,1.79
2019-02-11T18:06:19.653Z,1.77
2019-02-11T18:08:49.586Z,1.72
2019-02-11T18:11:19.940Z,1.70
2019-02-11T18:13:51.005Z,1.80
2019-02-11T18:16:20.913Z,1.66
2019-02-11T18:18:50.859Z,1.66
2019-02-11T18:21:20.773Z,1.72
2019-02-11T18:23:50.727Z,1.73
2019-02-11T18:26:20.568Z,1.75
2019-02-11T18:28:50.573Z,1.71
2019-02-11T18:31:20.477Z,1.68
2019-02-11T18:33:50.437Z,1.71
2019-02-11T18:36:20.328Z,1.69
2019-02-11T18:38:50.209Z,1.75
2019-02-11T18:41:20.245Z,1.67
2019-02-11T18:43:50.109Z,1.65
2019-02-11T18:46:20.057Z,1.67
2019-02-11T18:48:49.916Z,1.66
2019-02-11T18:51:20.190Z,1.69
2019-02-11T18:53:50.097Z,1.70
2019-02-11T18:56:20.082Z,1.70
2019-02-11T18:58:52.223Z,1.73
2019-02-11T19:01:22.158Z,1.70
2019-02-11T19:03:52.074Z,1.82
2019-02-11T19:06:22.082Z,1.73
2019-02-11T19:08:51.989Z,1.78
2019-02-11T19:11:22.200Z,1.74
2019-02-11T19:13:52.201Z,1.73
2019-02-11T19:16:22.277Z,1.75
2019-02-11T19:18:52.316Z,1.73
2019-02-11T19:21:22.244Z,1.72
2019-02-11T19:23:52.155Z,1.69
2019-02-11T19:26:22.169Z,1.63
2019-02-11T19:28:51.996Z,1.62
2019-02-11T19:31:21.931Z,1.65
2019-02-11T19:33:51.843Z,1.68
2019-02-11T19:36:21.792Z,1.65
2019-02-11T19:38:51.695Z,1.65
2019-02-11T19:41:22.536Z,1.67
2019-02-11T19:43:52.465Z,1.62
2019-02-11T19:46:22.383Z,1.64
2019-02-11T19:48:52.373Z,1.63
2019-02-11T19:51:22.258Z,1.62
2019-02-11T19:53:52.165Z,1.56
2019-02-11T19:56:22.191Z,1.53
2019-02-11T19:58:52.099Z,1.58
2019-02-11T20:01:21.994Z,1.53
2019-02-11T20:03:51.906Z,1.52
2019-02-11T20:06:21.802Z,1.51
2019-02-11T20:08:51.669Z,1.54
2019-02-11T20:11:21.632Z,1.54
2019-02-11T20:13:51.567Z,1.51
2019-02-11T20:16:21.480Z,1.51
2019-02-11T20:18:51.346Z,1.56
2019-02-11T20:21:21.326Z,1.57
2019-02-11T20:23:51.192Z,1.48
2019-02-11T20:26:21.105Z,1.48
2019-02-11T20:28:51.110Z,1.43
2019-02-11T20:31:21.858Z,1.31
2019-02-11T20:33:51.831Z,1.29
2019-02-11T20:36:21.729Z,1.23
2019-02-11T20:38:51.606Z,1.28
2019-02-11T20:41:21.500Z,1.32
2019-02-11T20:43:51.387Z,1.39
2019-02-11T20:46:21.336Z,1.36
2019-02-11T20:48:51.229Z,1.43
2019-02-11T20:51:21.664Z,1.44
2019-02-11T20:53:51.561Z,1.39
2019-02-11T20:56:21.588Z,1.41
2019-02-11T20:58:51.499Z,1.45
2019-02-11T21:01:21.382Z,1.45
2019-02-11T21:03:51.254Z,1.44
2019-02-11T21:06:21.085Z,1.48
2019-02-11T21:08:50.963Z,1.52
2019-02-11T21:11:20.785Z,1.56
2019-02-11T21:13:50.650Z,1.54
2019-02-11T21:16:20.569Z,1.62
2019-02-11T21:18:50.439Z,1.68
2019-02-11T21:21:20.362Z,1.66
2019-02-11T21:23:50.299Z,1.63
2019-02-11T21:26:20.186Z,1.63
2019-02-11T21:28:50.069Z,1.64
2019-02-11T21:31:20.061Z,1.73
2019-02-11T21:33:50.037Z,1.75
2019-02-11T21:36:20.020Z,1.73
2019-02-11T21:38:50.222Z,1.73
2019-02-11T21:41:20.230Z,1.76
2019-02-11T21:43:50.111Z,1.74
2019-02-11T21:46:19.933Z,1.68
2019-02-11T21:48:49.869Z,1.64
2019-02-11T21:51:19.772Z,1.57
2019-02-11T21:53:49.606Z,1.50
2019-02-11T21:56:19.520Z,1.49
2019-02-11T21:58:49.345Z,1.49
2019-02-11T22:01:19.334Z,1.46
2019-02-11T22:03:49.234Z,1.44
2019-02-11T22:06:19.174Z,1.42
2019-02-11T22:08:49.005Z,1.23
2019-02-11T22:11:18.957Z,1.11
2019-02-11T22:13:48.793Z,0.95
2019-02-11T22:16:18.831Z,0.92
2019-02-11T22:18:48.650Z,0.92
2019-02-11T22:21:18.611Z,1.12
2019-02-11T22:23:48.460Z,1.28
2019-02-11T22:26:18.598Z,1.28
2019-02-11T22:28:48.479Z,1.31
2019-02-11T22:31:18.411Z,1.38
2019-02-11T22:33:48.395Z,1.34
2019-02-11T22:36:18.341Z,1.33
2019-02-11T22:38:48.181Z,1.36
2019-02-11T22:41:18.165Z,1.32
2019-02-11T22:43:48.128Z,1.26
2019-02-11T22:46:18.050Z,1.14
2019-02-11T22:48:47.983Z,1.10
2019-02-11T22:51:17.835Z,1.08
2019-02-11T22:53:47.785Z,1.10
2019-02-11T22:56:17.656Z,1.11
2019-02-11T22:58:47.521Z,1.10
2019-02-11T23:01:17.967Z,1.16
2019-02-11T23:03:47.927Z,1.14
2019-02-11T23:06:17.907Z,1.09
2019-02-11T23:08:47.850Z,1.00
2019-02-11T23:11:17.961Z,1.07
2019-02-11T23:13:47.965Z,1.09
2019-02-11T23:16:17.872Z,1.08
2019-02-11T23:18:47.818Z,1.09
2019-02-11T23:21:17.754Z,1.11
2019-02-11T23:23:47.609Z,1.19
2019-02-11T23:26:17.557Z,1.19
2019-02-11T23:28:47.579Z,1.14
2019-02-11T23:31:17.455Z,1.24
2019-02-11T23:33:47.444Z,1.82
2019-02-11T23:36:17.390Z,1.44
2019-02-11T23:38:47.287Z,1.61
2019-02-11T23:41:17.275Z,1.40
2019-02-11T23:43:47.194Z,1.49
2019-02-11T23:46:17.140Z,1.35
2019-02-11T23:48:46.959Z,1.26
2019-02-11T23:51:16.919Z,1.20
2019-02-11T23:53:46.746Z,1.28
2019-02-11T23:56:16.690Z,1.23
2019-02-11T23:58:46.511Z,1.24
